sensor_id;sensor_type;location;lat;lon;timestamp;P1;durP1;ratioP1;P2;durP2;ratioP2
35757;SDS011;21879;50.110;18.900;2022-11-20T00:09:29;58.20;;;38.90;;
35757;SDS011;21879;50.110;18.900;2022-11-20T00:19:56;59.40;;;35.40;;
35757;SDS011;21879;50.110;18.900;2022-11-20T00:30:24;54.30;;;32.90;;
35757;SDS011;21879;50.110;18.900;2022-11-20T00:40:55;49.20;;;32.10;;
35757;SDS011;21879;50.110;18.900;2022-11-20T00:51:24;52.60;;;34.30;;
35757;SDS011;21879;50.110;18.900;2022-11-20T01:01:52;44.20;;;28.30;;
35757;SDS011;21879;50.110;18.900;2022-11-20T01:12:19;53.30;;;33.40;;
35757;SDS011;21879;50.110;18.900;2022-11-20T01:22:47;50.30;;;29.70;;
35757;SDS011;21879;50.110;18.900;2022-11-20T01:33:14;48.50;;;29.30;;
35757;SDS011;21879;50.110;18.900;2022-11-20T01:43:41;48.70;;;32.10;;
35757;SDS011;21879;50.110;18.900;2022-11-20T01:54:11;51.00;;;32.10;;
35757;SDS011;21879;50.110;18.900;2022-11-20T02:04:42;40.90;;;25.10;;
35757;SDS011;21879;50.110;18.900;2022-11-20T02:15:10;43.40;;;27.60;;
35757;SDS011;21879;50.110;18.900;2022-11-20T02:25:38;50.20;;;30.10;;
35757;SDS011;21879;50.110;18.900;2022-11-20T02:36:08;43.30;;;27.80;;
35757;SDS011;21879;50.110;18.900;2022-11-20T02:46:40;52.80;;;32.00;;
35757;SDS011;21879;50.110;18.900;2022-11-20T02:57:08;48.30;;;33.10;;
35757;SDS011;21879;50.110;18.900;2022-11-20T03:07:35;55.80;;;32.20;;
35757;SDS011;21879;50.110;18.900;2022-11-20T03:18:02;62.40;;;37.20;;
35757;SDS011;21879;50.110;18.900;2022-11-20T03:28:30;59.40;;;35.10;;
35757;SDS011;21879;50.110;18.900;2022-11-20T03:38:57;56.40;;;38.00;;
35757;SDS011;21879;50.110;18.900;2022-11-20T03:49:25;49.80;;;33.20;;
35757;SDS011;21879;50.110;18.900;2022-11-20T03:59:52;54.50;;;37.50;;
35757;SDS011;21879;50.110;18.900;2022-11-20T04:10:20;52.90;;;37.30;;
35757;SDS011;21879;50.110;18.900;2022-11-20T04:20:47;56.90;;;35.10;;
35757;SDS011;21879;50.110;18.900;2022-11-20T04:31:15;56.20;;;35.90;;
35757;SDS011;21879;50.110;18.900;2022-11-20T04:41:44;56.80;;;36.30;;
35757;SDS011;21879;50.110;18.900;2022-11-20T04:52:11;52.10;;;36.30;;
35757;SDS011;21879;50.110;18.900;2022-11-20T05:02:39;59.50;;;36.00;;
35757;SDS011;21879;50.110;18.900;2022-11-20T05:13:06;54.20;;;34.60;;
35757;SDS011;21879;50.110;18.900;2022-11-20T05:23:33;54.20;;;33.80;;
35757;SDS011;21879;50.110;18.900;2022-11-20T05:34:01;59.50;;;38.30;;
35757;SDS011;21879;50.110;18.900;2022-11-20T05:44:28;65.70;;;42.60;;
35757;SDS011;21879;50.110;18.900;2022-11-20T05:54:56;63.90;;;38.90;;
35757;SDS011;21879;50.110;18.900;2022-11-20T06:05:23;63.80;;;39.50;;
35757;SDS011;21879;50.110;18.900;2022-11-20T06:15:51;64.70;;;42.80;;
35757;SDS011;21879;50.110;18.900;2022-11-20T06:26:19;66.80;;;43.90;;
35757;SDS011;21879;50.110;18.900;2022-11-20T06:36:48;61.70;;;38.60;;
35757;SDS011;21879;50.110;18.900;2022-11-20T06:47:16;69.70;;;41.00;;
35757;SDS011;21879;50.110;18.900;2022-11-20T06:57:43;92.00;;;59.40;;
35757;SDS011;21879;50.110;18.900;2022-11-20T07:08:16;76.60;;;48.60;;
35757;SDS011;21879;50.110;18.900;2022-11-20T07:18:44;63.70;;;40.80;;
35757;SDS011;21879;50.110;18.900;2022-11-20T07:29:15;69.70;;;45.90;;
35757;SDS011;21879;50.110;18.900;2022-11-20T07:39:43;104.30;;;71.70;;
35757;SDS011;21879;50.110;18.900;2022-11-20T07:50:12;80.10;;;48.90;;
35757;SDS011;21879;50.110;18.900;2022-11-20T08:00:41;65.90;;;43.10;;
35757;SDS011;21879;50.110;18.900;2022-11-20T08:11:09;68.70;;;45.20;;
35757;SDS011;21879;50.110;18.900;2022-11-20T08:21:54;62.70;;;40.80;;
35757;SDS011;21879;50.110;18.900;2022-11-20T08:32:22;70.70;;;41.70;;
35757;SDS011;21879;50.110;18.900;2022-11-20T08:42:50;71.60;;;48.00;;
35757;SDS011;21879;50.110;18.900;2022-11-20T08:53:18;65.20;;;46.30;;
35757;SDS011;21879;50.110;18.900;2022-11-20T09:03:46;77.60;;;50.80;;
35757;SDS011;21879;50.110;18.900;2022-11-20T09:14:15;67.80;;;46.90;;
35757;SDS011;21879;50.110;18.900;2022-11-20T09:24:43;63.20;;;47.70;;
35757;SDS011;21879;50.110;18.900;2022-11-20T09:35:11;69.20;;;49.60;;
35757;SDS011;21879;50.110;18.900;2022-11-20T09:45:42;66.80;;;46.40;;
35757;SDS011;21879;50.110;18.900;2022-11-20T09:56:20;73.40;;;45.70;;
35757;SDS011;21879;50.110;18.900;2022-11-20T10:06:50;64.40;;;43.00;;
35757;SDS011;21879;50.110;18.900;2022-11-20T10:28:47;64.40;;;40.20;;
35757;SDS011;21879;50.110;18.900;2022-11-20T10:39:31;66.20;;;40.20;;
35757;SDS011;21879;50.110;18.900;2022-11-20T10:50:05;49.70;;;32.00;;
35757;SDS011;21879;50.110;18.900;2022-11-20T11:00:45;51.60;;;33.70;;
35757;SDS011;21879;50.110;18.900;2022-11-20T11:11:18;55.10;;;34.70;;
35757;SDS011;21879;50.110;18.900;2022-11-20T11:21:49;57.50;;;37.70;;
35757;SDS011;21879;50.110;18.900;2022-11-20T11:32:19;63.30;;;42.10;;
35757;SDS011;21879;50.110;18.900;2022-11-20T11:42:49;59.20;;;39.40;;
35757;SDS011;21879;50.110;18.900;2022-11-20T11:53:22;56.60;;;36.60;;
35757;SDS011;21879;50.110;18.900;2022-11-20T12:03:55;59.60;;;37.10;;
35757;SDS011;21879;50.110;18.900;2022-11-20T12:14:30;64.10;;;39.30;;
35757;SDS011;21879;50.110;18.900;2022-11-20T12:25:03;64.70;;;39.70;;
35757;SDS011;21879;50.110;18.900;2022-11-20T12:35:39;59.50;;;37.60;;
35757;SDS011;21879;50.110;18.900;2022-11-20T12:46:29;66.60;;;38.80;;
35757;SDS011;21879;50.110;18.900;2022-11-20T12:57:07;61.90;;;36.40;;
35757;SDS011;21879;50.110;18.900;2022-11-20T13:07:41;59.60;;;37.10;;
35757;SDS011;21879;50.110;18.900;2022-11-20T13:18:10;57.20;;;35.90;;
35757;SDS011;21879;50.110;18.900;2022-11-20T13:28:39;51.20;;;32.50;;
35757;SDS011;21879;50.110;18.900;2022-11-20T13:39:08;52.90;;;31.40;;
35757;SDS011;21879;50.110;18.900;2022-11-20T13:49:37;59.30;;;33.10;;
35757;SDS011;21879;50.110;18.900;2022-11-20T14:00:11;50.30;;;35.80;;
35757;SDS011;21879;50.110;18.900;2022-11-20T14:10:41;51.00;;;31.10;;
35757;SDS011;21879;50.110;18.900;2022-11-20T14:21:09;54.40;;;32.60;;
35757;SDS011;21879;50.110;18.900;2022-11-20T14:42:02;49.90;;;31.60;;
35757;SDS011;21879;50.110;18.900;2022-11-20T14:52:39;52.20;;;31.70;;
35757;SDS011;21879;50.110;18.900;2022-11-20T15:03:17;52.80;;;33.50;;
35757;SDS011;21879;50.110;18.900;2022-11-20T15:13:45;58.10;;;36.50;;
35757;SDS011;21879;50.110;18.900;2022-11-20T15:24:13;61.20;;;37.50;;
35757;SDS011;21879;50.110;18.900;2022-11-20T15:34:41;54.10;;;34.00;;
35757;SDS011;21879;50.110;18.900;2022-11-20T15:45:09;60.70;;;36.60;;
35757;SDS011;21879;50.110;18.900;2022-11-20T15:55:37;60.20;;;37.30;;
35757;SDS011;21879;50.110;18.900;2022-11-20T16:06:05;54.90;;;33.20;;
35757;SDS011;21879;50.110;18.900;2022-11-20T16:16:33;58.60;;;37.10;;
35757;SDS011;21879;50.110;18.900;2022-11-20T16:27:04;53.80;;;32.20;;
35757;SDS011;21879;50.110;18.900;2022-11-20T16:37:32;54.70;;;31.80;;
35757;SDS011;21879;50.110;18.900;2022-11-20T16:47:59;47.80;;;30.60;;
35757;SDS011;21879;50.110;18.900;2022-11-20T16:58:26;51.10;;;29.20;;
35757;SDS011;21879;50.110;18.900;2022-11-20T17:08:54;66.70;;;39.10;;
35757;SDS011;21879;50.110;18.900;2022-11-20T17:19:22;56.70;;;37.00;;
35757;SDS011;21879;50.110;18.900;2022-11-20T17:29:49;46.00;;;31.20;;
35757;SDS011;21879;50.110;18.900;2022-11-20T17:40:18;45.70;;;25.50;;
35757;SDS011;21879;50.110;18.900;2022-11-20T17:50:51;55.90;;;35.40;;
35757;SDS011;21879;50.110;18.900;2022-11-20T18:01:23;44.30;;;26.10;;
35757;SDS011;21879;50.110;18.900;2022-11-20T18:11:51;40.50;;;24.70;;
35757;SDS011;21879;50.110;18.900;2022-11-20T18:22:19;48.50;;;26.20;;
35757;SDS011;21879;50.110;18.900;2022-11-20T18:32:46;41.50;;;25.20;;
35757;SDS011;21879;50.110;18.900;2022-11-20T18:43:14;40.40;;;24.90;;
35757;SDS011;21879;50.110;18.900;2022-11-20T18:53:59;37.90;;;22.50;;
35757;SDS011;21879;50.110;18.900;2022-11-20T19:04:27;44.90;;;27.50;;
35757;SDS011;21879;50.110;18.900;2022-11-20T19:14:56;45.10;;;25.50;;
35757;SDS011;21879;50.110;18.900;2022-11-20T19:25:24;43.50;;;22.90;;
35757;SDS011;21879;50.110;18.900;2022-11-20T19:35:52;48.60;;;26.80;;
35757;SDS011;21879;50.110;18.900;2022-11-20T19:46:20;53.00;;;31.40;;
35757;SDS011;21879;50.110;18.900;2022-11-20T19:56:48;41.10;;;27.60;;
35757;SDS011;21879;50.110;18.900;2022-11-20T20:07:16;45.90;;;29.80;;
35757;SDS011;21879;50.110;18.900;2022-11-20T20:17:44;45.50;;;24.50;;
35757;SDS011;21879;50.110;18.900;2022-11-20T20:28:11;41.20;;;26.90;;
35757;SDS011;21879;50.110;18.900;2022-11-20T20:38:39;39.50;;;21.60;;
35757;SDS011;21879;50.110;18.900;2022-11-20T20:49:08;52.70;;;32.30;;
35757;SDS011;21879;50.110;18.900;2022-11-20T20:59:35;77.20;;;46.20;;
35757;SDS011;21879;50.110;18.900;2022-11-20T21:10:04;62.20;;;36.30;;
35757;SDS011;21879;50.110;18.900;2022-11-20T21:20:32;59.80;;;33.70;;
35757;SDS011;21879;50.110;18.900;2022-11-20T21:31:17;53.00;;;31.10;;
35757;SDS011;21879;50.110;18.900;2022-11-20T21:41:47;71.20;;;39.60;;
35757;SDS011;21879;50.110;18.900;2022-11-20T21:52:14;54.30;;;32.60;;
35757;SDS011;21879;50.110;18.900;2022-11-20T22:02:41;53.30;;;27.50;;
35757;SDS011;21879;50.110;18.900;2022-11-20T22:13:09;55.40;;;29.80;;
35757;SDS011;21879;50.110;18.900;2022-11-20T22:23:55;41.40;;;22.80;;
35757;SDS011;21879;50.110;18.900;2022-11-20T22:34:24;43.80;;;23.50;;
35757;SDS011;21879;50.110;18.900;2022-11-20T22:44:52;39.50;;;24.10;;
35757;SDS011;21879;50.110;18.900;2022-11-20T22:55:19;47.70;;;26.50;;
35757;SDS011;21879;50.110;18.900;2022-11-20T23:05:47;44.50;;;26.30;;
35757;SDS011;21879;50.110;18.900;2022-11-20T23:16:16;43.60;;;24.80;;
35757;SDS011;21879;50.110;18.900;2022-11-20T23:37:11;42.50;;;24.90;;
35757;SDS011;21879;50.110;18.900;2022-11-20T23:47:38;40.10;;;21.10;;
35757;SDS011;21879;50.110;18.900;2022-11-20T23:58:06;37.30;;;19.80;;
